createdAt,value
2017-12-19T00:01:04.852Z,15.88
2017-12-19T00:03:33.495Z,17.92
2017-12-19T00:06:02.564Z,15.88
2017-12-19T00:08:30.604Z,18.45
2017-12-19T00:10:58.623Z,14.95
2017-12-19T00:13:26.668Z,18.65
2017-12-19T00:15:54.690Z,16.12
2017-12-19T00:18:22.688Z,18.92
2017-12-19T00:20:50.764Z,15.85
2017-12-19T00:23:18.799Z,18.55
2017-12-19T00:25:46.882Z,17.65
2017-12-19T00:28:14.883Z,18.87
2017-12-19T00:30:42.949Z,17.90
2017-12-19T00:33:10.984Z,16.75
2017-12-19T00:35:39.880Z,17.52
2017-12-19T00:38:07.914Z,17.85
2017-12-19T00:40:35.949Z,17.48
2017-12-19T00:43:03.955Z,18.17
2017-12-19T00:45:31.953Z,18.05
2017-12-19T00:48:00.796Z,15.45
2017-12-19T00:50:28.808Z,16.15
2017-12-19T00:52:57.608Z,16.55
2017-12-19T00:55:26.357Z,18.62
2017-12-19T00:57:54.371Z,15.95
2017-12-19T01:00:22.430Z,16.08
2017-12-19T01:02:50.465Z,15.75
2017-12-19T01:05:18.443Z,18.20
2017-12-19T01:07:46.443Z,16.52
2017-12-19T01:10:14.426Z,16.02
2017-12-19T01:12:42.414Z,15.55
2017-12-19T01:15:10.404Z,16.35
2017-12-19T01:17:38.570Z,16.95
2017-12-19T01:20:06.540Z,17.17
2017-12-19T01:22:34.585Z,17.25
2017-12-19T01:25:03.331Z,15.23
2017-12-19T01:27:31.355Z,18.20
2017-12-19T01:29:59.303Z,15.15
2017-12-19T01:32:27.306Z,16.55
2017-12-19T01:34:55.247Z,15.60
2017-12-19T01:37:24.003Z,17.52
2017-12-19T01:39:51.928Z,15.43
2017-12-19T01:42:19.966Z,17.35
2017-12-19T01:44:47.920Z,16.90
2017-12-19T01:47:15.929Z,15.85
2017-12-19T01:49:43.960Z,15.93
2017-12-19T01:52:11.931Z,17.60
2017-12-19T01:54:39.919Z,18.00
2017-12-19T01:57:07.852Z,19.40
2017-12-19T01:59:35.846Z,19.10
2017-12-19T02:02:03.786Z,20.45
2017-12-19T02:04:31.800Z,22.17
2017-12-19T02:06:59.727Z,20.67
2017-12-19T02:09:27.694Z,19.83
2017-12-19T02:11:55.609Z,20.00
2017-12-19T02:14:23.590Z,19.30
2017-12-19T02:16:51.682Z,21.80
2017-12-19T02:19:19.771Z,18.35
2017-12-19T02:21:47.755Z,21.65
2017-12-19T02:24:15.817Z,22.05
2017-12-19T02:26:43.821Z,19.37
2017-12-19T02:29:11.859Z,19.95
2017-12-19T02:31:39.861Z,19.95
2017-12-19T02:34:07.961Z,18.17
2017-12-19T02:36:36.010Z,20.15
2017-12-19T02:39:04.126Z,19.98
2017-12-19T02:41:32.130Z,20.02
2017-12-19T02:44:00.241Z,18.70
2017-12-19T02:46:31.924Z,18.27
2017-12-19T02:48:59.973Z,21.75
2017-12-19T02:51:27.963Z,17.55
2017-12-19T02:53:56.770Z,19.95
2017-12-19T02:56:24.784Z,19.98
2017-12-19T02:58:52.840Z,18.15
2017-12-19T03:01:20.856Z,18.75
2017-12-19T03:03:48.915Z,21.25
2017-12-19T03:06:16.910Z,21.73
2017-12-19T03:08:44.969Z,19.10
2017-12-19T03:11:12.910Z,21.65
2017-12-19T03:13:40.940Z,18.23
2017-12-19T03:16:09.084Z,20.23
2017-12-19T03:18:37.122Z,23.33
2017-12-19T03:21:05.172Z,18.65
2017-12-19T03:23:33.170Z,20.45
2017-12-19T03:26:01.215Z,17.80
2017-12-19T03:28:29.196Z,18.00
2017-12-19T03:30:57.234Z,19.98
2017-12-19T03:33:25.216Z,18.30
2017-12-19T03:35:53.246Z,17.85
2017-12-19T03:38:21.242Z,18.62
2017-12-19T03:40:49.300Z,17.70
2017-12-19T03:43:17.276Z,16.42
2017-12-19T03:45:45.319Z,17.80
2017-12-19T03:48:13.309Z,16.55
2017-12-19T03:50:41.341Z,17.95
2017-12-19T03:53:09.334Z,17.95
2017-12-19T03:55:37.371Z,17.45
2017-12-19T03:58:05.381Z,18.27
2017-12-19T04:00:33.645Z,17.62
2017-12-19T04:03:01.665Z,17.42
2017-12-19T04:05:29.723Z,16.60
2017-12-19T04:08:02.323Z,17.70
2017-12-19T04:10:30.375Z,15.07
2017-12-19T04:12:59.127Z,16.65
2017-12-19T04:15:27.163Z,15.07
2017-12-19T04:17:55.156Z,15.82
2017-12-19T04:20:23.200Z,16.37
2017-12-19T04:22:51.157Z,15.57
2017-12-19T04:25:19.234Z,15.95
2017-12-19T04:27:47.208Z,15.77
2017-12-19T04:30:15.270Z,15.52
2017-12-19T04:32:43.258Z,16.10
2017-12-19T04:35:11.280Z,14.70
2017-12-19T04:37:40.411Z,16.33
2017-12-19T04:40:09.224Z,15.70
2017-12-19T04:42:37.224Z,16.00
2017-12-19T04:45:05.267Z,15.65
2017-12-19T04:47:33.302Z,16.35
2017-12-19T04:50:01.362Z,15.05
2017-12-19T04:52:29.356Z,15.48
2017-12-19T04:54:58.205Z,15.43
2017-12-19T04:57:26.169Z,18.77
2017-12-19T04:59:54.226Z,15.75
2017-12-19T05:02:22.242Z,15.60
2017-12-19T05:04:51.302Z,15.20
2017-12-19T05:07:19.442Z,15.60
2017-12-19T05:09:47.498Z,14.45
2017-12-19T05:12:16.288Z,15.88
2017-12-19T05:14:51.932Z,15.65
2017-12-19T05:17:20.908Z,14.57
2017-12-19T05:19:48.940Z,13.38
2017-12-19T05:22:22.298Z,15.25
2017-12-19T05:24:54.003Z,17.27
2017-12-19T05:27:25.180Z,17.77
2017-12-19T05:29:56.535Z,16.23
2017-12-19T05:32:24.752Z,16.83
2017-12-19T05:34:52.828Z,15.82
2017-12-19T05:37:24.569Z,15.20
2017-12-19T05:39:52.652Z,15.00
2017-12-19T05:42:26.150Z,14.87
2017-12-19T05:44:55.226Z,16.10
2017-12-19T05:47:23.294Z,16.02
2017-12-19T05:49:51.322Z,15.18
2017-12-19T05:52:19.316Z,15.45
2017-12-19T05:54:47.356Z,13.77
2017-12-19T05:57:15.376Z,13.10
2017-12-19T05:59:43.387Z,13.65
2017-12-19T06:02:11.469Z,14.60
2017-12-19T06:04:39.518Z,14.68
2017-12-19T06:07:16.732Z,14.07
2017-12-19T06:09:44.814Z,13.52
2017-12-19T06:12:12.848Z,14.27
2017-12-19T06:14:40.940Z,14.35
2017-12-19T06:17:09.012Z,14.02
2017-12-19T06:19:37.084Z,13.25
2017-12-19T06:22:05.075Z,14.23
2017-12-19T06:24:33.149Z,14.35
2017-12-19T06:27:01.175Z,14.18
2017-12-19T06:29:29.246Z,14.80
2017-12-19T06:31:58.024Z,14.73
2017-12-19T06:34:26.111Z,12.70
2017-12-19T06:36:56.161Z,13.43
2017-12-19T06:39:24.197Z,12.20
2017-12-19T06:41:52.281Z,12.15
2017-12-19T06:44:20.314Z,12.07
2017-12-19T06:46:48.377Z,12.10
2017-12-19T06:49:16.377Z,12.18
2017-12-19T06:51:45.199Z,12.10
2017-12-19T06:54:13.182Z,12.20
2017-12-19T06:56:41.198Z,12.75
2017-12-19T06:59:09.215Z,13.30
2017-12-19T07:01:37.261Z,13.60
2017-12-19T07:04:05.278Z,13.45
2017-12-19T07:06:36.759Z,13.32
2017-12-19T07:09:04.800Z,12.45
2017-12-19T07:11:32.844Z,11.90
2017-12-19T07:14:00.866Z,14.55
2017-12-19T07:16:28.907Z,13.40
2017-12-19T07:18:56.866Z,12.52
2017-12-19T07:21:24.926Z,15.13
2017-12-19T07:23:52.920Z,14.55
2017-12-19T07:26:20.978Z,13.73
2017-12-19T07:28:49.017Z,13.80
2017-12-19T07:31:17.086Z,14.52
2017-12-19T07:33:45.085Z,13.73
2017-12-19T07:36:13.935Z,15.50
2017-12-19T07:38:41.951Z,13.38
2017-12-19T07:41:10.016Z,14.43
2017-12-19T07:43:38.004Z,14.82
2017-12-19T07:46:06.040Z,13.25
2017-12-19T07:48:34.003Z,15.13
2017-12-19T07:51:02.003Z,15.10
2017-12-19T07:53:30.027Z,12.90
2017-12-19T07:55:58.031Z,13.48
2017-12-19T07:58:27.130Z,13.93
2017-12-19T08:00:55.173Z,13.10
2017-12-19T08:03:23.150Z,11.70
2017-12-19T08:05:51.162Z,13.62
2017-12-19T08:08:19.112Z,13.05
2017-12-19T08:10:47.119Z,11.95
2017-12-19T08:13:15.073Z,12.75
2017-12-19T08:15:43.135Z,13.18
2017-12-19T08:18:11.197Z,12.65
2017-12-19T08:20:39.236Z,10.80
2017-12-19T08:23:07.193Z,11.95
2017-12-19T08:25:35.219Z,12.23
2017-12-19T08:28:05.185Z,12.40
2017-12-19T08:30:33.207Z,11.90
2017-12-19T08:33:01.928Z,10.82
2017-12-19T08:35:29.905Z,12.02
2017-12-19T08:37:57.847Z,11.27
2017-12-19T08:40:25.828Z,12.50
2017-12-19T08:42:53.775Z,13.35
2017-12-19T08:45:21.794Z,14.20
2017-12-19T08:47:49.765Z,13.30
2017-12-19T08:50:17.853Z,14.98
2017-12-19T08:52:45.793Z,12.50
2017-12-19T08:55:13.779Z,12.50
2017-12-19T08:57:47.561Z,13.45
2017-12-19T09:00:15.593Z,13.60
2017-12-19T09:02:43.512Z,13.43
2017-12-19T09:05:11.502Z,12.70
2017-12-19T09:07:39.475Z,14.25
2017-12-19T09:10:07.477Z,14.10
2017-12-19T09:12:35.463Z,12.10
2017-12-19T09:15:03.435Z,13.62
2017-12-19T09:17:31.448Z,12.73
2017-12-19T09:19:59.396Z,12.35
2017-12-19T09:22:27.399Z,13.55
2017-12-19T09:24:55.355Z,11.38
2017-12-19T09:27:31.507Z,12.15
2017-12-19T09:29:59.451Z,11.12
2017-12-19T09:32:27.439Z,11.32
2017-12-19T09:34:55.378Z,11.88
2017-12-19T09:37:24.201Z,11.90
2017-12-19T09:39:52.141Z,11.32
2017-12-19T09:42:20.882Z,12.15
2017-12-19T09:44:48.857Z,10.85
2017-12-19T09:47:16.881Z,10.80
2017-12-19T09:49:44.812Z,12.93
2017-12-19T09:52:12.812Z,12.65
2017-12-19T09:54:41.510Z,12.07
2017-12-19T09:57:09.543Z,13.68
2017-12-19T09:59:37.489Z,12.90
2017-12-19T10:02:05.462Z,13.90
2017-12-19T10:04:33.417Z,13.62
2017-12-19T10:07:01.417Z,12.68
2017-12-19T10:09:29.353Z,12.68
2017-12-19T10:11:57.358Z,13.98
2017-12-19T10:14:25.349Z,13.93
2017-12-19T10:16:53.349Z,13.70
2017-12-19T10:19:21.419Z,16.70
2017-12-19T10:21:49.606Z,14.52
2017-12-19T10:24:17.730Z,14.02
2017-12-19T10:26:46.005Z,14.23
2017-12-19T10:29:14.060Z,12.90
2017-12-19T10:31:42.142Z,14.00
2017-12-19T10:34:10.125Z,14.73
2017-12-19T10:36:38.192Z,13.20
2017-12-19T10:39:06.169Z,15.95
2017-12-19T10:41:36.223Z,14.80
2017-12-19T10:44:04.736Z,13.30
2017-12-19T10:46:32.736Z,13.90
2017-12-19T10:49:00.689Z,14.38
2017-12-19T10:51:28.708Z,15.00
2017-12-19T10:53:57.465Z,13.55
2017-12-19T10:56:25.490Z,13.13
2017-12-19T10:58:53.423Z,12.80
2017-12-19T11:01:21.419Z,13.05
2017-12-19T11:03:49.423Z,12.20
2017-12-19T11:06:19.842Z,14.43
2017-12-19T11:08:48.939Z,16.17
2017-12-19T11:11:16.942Z,15.43
2017-12-19T11:13:44.870Z,14.20
2017-12-19T11:16:13.815Z,15.23
2017-12-19T11:18:41.793Z,13.30
2017-12-19T11:21:09.810Z,13.75
2017-12-19T11:23:39.202Z,13.52
2017-12-19T11:26:07.220Z,12.68
2017-12-19T11:28:37.419Z,11.20
2017-12-19T11:31:05.513Z,12.05
2017-12-19T11:33:33.569Z,12.57
2017-12-19T11:36:01.648Z,15.02
2017-12-19T11:38:29.679Z,13.25
2017-12-19T11:40:57.754Z,13.32
2017-12-19T11:43:25.739Z,13.82
2017-12-19T11:45:53.991Z,13.90
2017-12-19T11:48:21.992Z,12.70
2017-12-19T11:50:49.942Z,11.48
2017-12-19T11:53:17.972Z,10.23
2017-12-19T11:55:45.955Z,11.43
2017-12-19T11:58:13.956Z,12.15
2017-12-19T12:00:42.483Z,10.80
2017-12-19T12:03:10.492Z,12.07
2017-12-19T12:05:39.258Z,11.30
2017-12-19T12:08:07.272Z,10.93
2017-12-19T12:10:35.251Z,10.93
2017-12-19T12:13:03.279Z,11.75
2017-12-19T12:15:31.253Z,11.35
2017-12-19T12:17:59.520Z,11.30
2017-12-19T12:20:27.710Z,13.82
2017-12-19T12:22:55.688Z,12.10
2017-12-19T12:25:24.468Z,11.88
2017-12-19T12:27:52.517Z,12.13
2017-12-19T12:30:20.481Z,10.85
2017-12-19T12:32:48.480Z,12.70
2017-12-19T12:35:16.806Z,13.57
2017-12-19T12:37:44.856Z,12.73
2017-12-19T12:40:12.882Z,12.70
2017-12-19T12:42:40.917Z,11.95
2017-12-19T12:45:08.945Z,12.60
2017-12-19T12:47:38.258Z,12.93
2017-12-19T12:50:06.371Z,12.40
2017-12-19T12:52:34.424Z,11.05
2017-12-19T12:55:02.516Z,18.75
2017-12-19T12:57:30.641Z,14.77
2017-12-19T12:59:58.644Z,14.77
2017-12-19T13:02:27.984Z,14.25
2017-12-19T13:04:56.455Z,13.40
2017-12-19T13:07:25.958Z,12.55
2017-12-19T13:09:54.061Z,13.57
2017-12-19T13:12:22.351Z,14.52
2017-12-19T13:14:52.472Z,13.88
2017-12-19T13:17:21.382Z,15.50
2017-12-19T13:19:49.353Z,12.77
2017-12-19T13:22:17.324Z,12.32
2017-12-19T13:24:45.256Z,12.15
2017-12-19T13:27:13.277Z,13.90
2017-12-19T13:29:42.192Z,12.77
2017-12-19T13:32:10.326Z,14.40
2017-12-19T13:34:38.259Z,11.68
2017-12-19T13:37:06.518Z,11.88
2017-12-19T13:39:35.227Z,13.35
2017-12-19T13:42:03.302Z,12.82
2017-12-19T13:44:31.689Z,11.57
2017-12-19T13:46:59.720Z,11.80
2017-12-19T13:49:27.721Z,13.13
2017-12-19T13:51:55.666Z,12.75
2017-12-19T13:54:23.648Z,13.20
2017-12-19T13:56:51.557Z,13.62
2017-12-19T13:59:19.614Z,15.25
2017-12-19T14:01:47.521Z,13.52
2017-12-19T14:04:15.564Z,12.10
2017-12-19T14:06:44.284Z,11.40
2017-12-19T14:09:12.318Z,16.77
2017-12-19T14:11:41.040Z,12.88
2017-12-19T14:14:09.048Z,12.68
2017-12-19T14:16:37.084Z,12.88
2017-12-19T14:19:05.103Z,12.55
2017-12-19T14:21:33.175Z,12.30
2017-12-19T14:24:01.267Z,12.40
2017-12-19T14:26:29.232Z,12.00
2017-12-19T14:28:57.253Z,11.98
2017-12-19T14:31:26.776Z,15.05
2017-12-19T14:33:54.872Z,12.13
2017-12-19T14:36:22.805Z,13.62
2017-12-19T14:38:50.726Z,12.23
2017-12-19T14:41:19.097Z,13.48
2017-12-19T14:43:47.045Z,13.45
2017-12-19T14:46:16.294Z,13.00
2017-12-19T14:48:45.018Z,14.35
2017-12-19T14:51:13.015Z,12.95
2017-12-19T14:53:41.196Z,12.75
2017-12-19T14:56:09.165Z,14.20
2017-12-19T14:58:37.103Z,12.00
2017-12-19T15:01:05.117Z,11.32
2017-12-19T15:03:33.059Z,13.13
2017-12-19T15:06:01.038Z,13.88
2017-12-19T15:08:29.037Z,11.35
2017-12-19T15:10:57.031Z,13.15
2017-12-19T15:13:24.990Z,13.25
2017-12-19T15:15:53.021Z,12.45
2017-12-19T15:18:20.992Z,12.60
2017-12-19T15:20:48.990Z,12.00
2017-12-19T15:23:16.906Z,11.75
2017-12-19T15:25:44.926Z,12.52
2017-12-19T15:28:12.872Z,14.52
2017-12-19T15:30:40.902Z,14.87
2017-12-19T15:33:08.856Z,12.25
2017-12-19T15:35:36.783Z,13.00
2017-12-19T15:38:04.877Z,11.98
2017-12-19T15:40:32.882Z,14.48
2017-12-19T15:43:00.837Z,11.95
2017-12-19T15:45:28.841Z,12.93
2017-12-19T15:47:56.884Z,12.65
2017-12-19T15:50:25.610Z,12.80
2017-12-19T15:52:53.651Z,14.40
2017-12-19T15:55:21.620Z,13.07
2017-12-19T15:57:49.646Z,13.57
2017-12-19T16:00:17.611Z,13.05
2017-12-19T16:02:45.622Z,12.20
2017-12-19T16:05:13.587Z,12.60
2017-12-19T16:07:45.461Z,13.13
2017-12-19T16:10:13.466Z,12.60
2017-12-19T16:12:41.505Z,13.15
2017-12-19T16:15:10.229Z,11.25
2017-12-19T16:17:38.238Z,13.52
2017-12-19T16:20:06.222Z,13.15
2017-12-19T16:22:34.216Z,16.87
2017-12-19T16:25:02.176Z,15.68
2017-12-19T16:27:30.173Z,13.85
2017-12-19T16:29:58.167Z,14.73
2017-12-19T16:32:26.178Z,17.25
2017-12-19T16:34:54.131Z,16.10
2017-12-19T16:37:22.319Z,26.17
2017-12-19T16:39:50.274Z,19.48
2017-12-19T16:42:18.274Z,20.45
2017-12-19T16:44:46.231Z,21.80
2017-12-19T16:47:15.017Z,20.60
2017-12-19T16:49:43.015Z,20.15
2017-12-19T16:52:10.955Z,16.27
2017-12-19T16:54:39.724Z,12.02
2017-12-19T16:57:07.680Z,13.65
2017-12-19T16:59:35.691Z,13.70
2017-12-19T17:02:03.658Z,14.13
2017-12-19T17:04:31.668Z,13.55
2017-12-19T17:06:59.746Z,14.00
2017-12-19T17:09:27.758Z,14.35
2017-12-19T17:11:55.698Z,12.98
2017-12-19T17:14:23.739Z,12.88
2017-12-19T17:16:51.710Z,13.77
2017-12-19T17:19:19.720Z,12.82
2017-12-19T17:21:47.706Z,11.90
2017-12-19T17:24:15.742Z,13.65
2017-12-19T17:26:43.684Z,12.80
2017-12-19T17:29:11.694Z,11.52
2017-12-19T17:31:39.668Z,11.48
2017-12-19T17:34:07.657Z,11.00
2017-12-19T17:36:35.715Z,11.20
2017-12-19T17:39:03.805Z,10.35
2017-12-19T17:41:31.802Z,10.05
2017-12-19T17:43:59.850Z,10.15
2017-12-19T17:46:27.815Z,10.70
2017-12-19T17:48:55.856Z,12.75
2017-12-19T17:51:27.254Z,10.13
2017-12-19T17:53:55.475Z,10.73
2017-12-19T17:56:23.457Z,12.15
2017-12-19T17:58:51.513Z,10.60
2017-12-19T18:01:19.495Z,9.40
2017-12-19T18:03:47.606Z,11.73
2017-12-19T18:06:15.569Z,9.70
2017-12-19T18:08:43.635Z,10.93
2017-12-19T18:11:11.590Z,9.50
2017-12-19T18:13:39.902Z,10.80
2017-12-19T18:16:07.880Z,12.43
2017-12-19T18:18:36.692Z,11.70
2017-12-19T18:21:04.738Z,12.27
2017-12-19T18:23:32.755Z,11.70
2017-12-19T18:26:00.872Z,11.20
2017-12-19T18:28:29.017Z,11.70
2017-12-19T18:30:57.032Z,11.50
2017-12-19T18:33:25.076Z,11.00
2017-12-19T18:35:53.051Z,11.43
2017-12-19T18:38:21.113Z,12.55
2017-12-19T18:40:51.097Z,11.73
2017-12-19T18:43:19.102Z,11.20
2017-12-19T18:45:47.074Z,12.60
2017-12-19T18:48:15.112Z,11.25
2017-12-19T18:50:43.087Z,10.98
2017-12-19T18:53:11.106Z,11.12
2017-12-19T18:55:39.054Z,11.93
2017-12-19T18:58:07.058Z,11.95
2017-12-19T19:00:35.026Z,12.27
2017-12-19T19:03:03.117Z,11.57
2017-12-19T19:05:31.875Z,12.80
2017-12-19T19:07:59.877Z,9.75
2017-12-19T19:10:28.695Z,13.60
2017-12-19T19:12:56.752Z,12.27
2017-12-19T19:15:24.796Z,12.02
2017-12-19T19:17:54.041Z,11.95
2017-12-19T19:20:22.094Z,12.75
2017-12-19T19:22:50.057Z,13.15
2017-12-19T19:25:19.264Z,14.40
2017-12-19T19:27:48.171Z,14.60
2017-12-19T19:30:16.327Z,14.55
2017-12-19T19:32:45.096Z,13.82
2017-12-19T19:35:13.879Z,15.35
2017-12-19T19:37:41.914Z,14.85
2017-12-19T19:40:09.970Z,13.80
2017-12-19T19:42:38.757Z,12.55
2017-12-19T19:45:06.866Z,14.45
2017-12-19T19:47:35.023Z,13.93
2017-12-19T19:50:05.914Z,13.73
2017-12-19T19:52:36.799Z,15.00
2017-12-19T19:55:05.028Z,14.18
2017-12-19T19:57:33.993Z,15.35
2017-12-19T20:00:02.068Z,14.70
2017-12-19T20:02:30.134Z,12.60
2017-12-19T20:04:58.188Z,14.75
2017-12-19T20:07:26.348Z,14.70
2017-12-19T20:09:54.409Z,12.05
2017-12-19T20:12:22.404Z,14.18
2017-12-19T20:14:50.476Z,16.00
2017-12-19T20:17:18.574Z,12.93
2017-12-19T20:19:46.621Z,14.77
2017-12-19T20:22:14.790Z,13.55
2017-12-19T20:24:42.852Z,14.57
2017-12-19T20:27:11.240Z,15.25
2017-12-19T20:29:39.590Z,17.30
2017-12-19T20:32:07.586Z,19.02
2017-12-19T20:34:35.631Z,18.35
2017-12-19T20:37:03.830Z,17.75
2017-12-19T20:39:31.841Z,14.87
2017-12-19T20:41:59.867Z,13.88
2017-12-19T20:44:30.282Z,14.05
2017-12-19T20:47:00.090Z,13.68
2017-12-19T20:49:28.306Z,12.55
2017-12-19T20:51:56.289Z,14.40
2017-12-19T20:54:28.370Z,15.27
2017-12-19T20:56:57.321Z,12.65
2017-12-19T20:59:25.315Z,15.20
2017-12-19T21:01:54.634Z,15.80
2017-12-19T21:04:22.677Z,13.25
2017-12-19T21:06:54.571Z,14.90
2017-12-19T21:09:22.962Z,13.73
2017-12-19T21:11:52.147Z,12.52
2017-12-19T21:14:20.246Z,13.43
2017-12-19T21:16:48.475Z,12.23
2017-12-19T21:19:16.529Z,14.35
2017-12-19T21:21:44.479Z,13.80
2017-12-19T21:24:12.499Z,13.27
2017-12-19T21:26:40.574Z,14.87
2017-12-19T21:29:08.575Z,12.60
2017-12-19T21:31:37.294Z,14.02
2017-12-19T21:34:05.320Z,13.70
2017-12-19T21:36:33.481Z,13.10
2017-12-19T21:39:01.481Z,13.93
2017-12-19T21:41:30.204Z,13.68
2017-12-19T21:43:58.953Z,14.02
2017-12-19T21:46:26.870Z,12.18
2017-12-19T21:48:54.895Z,12.98
2017-12-19T21:51:23.658Z,11.70
2017-12-19T21:53:51.643Z,11.80
2017-12-19T21:56:19.693Z,10.90
2017-12-19T21:58:48.086Z,14.13
2017-12-19T22:01:16.036Z,12.05
2017-12-19T22:03:44.031Z,12.37
2017-12-19T22:06:12.181Z,13.00
2017-12-19T22:08:40.197Z,13.90
2017-12-19T22:11:08.981Z,12.55
2017-12-19T22:13:36.971Z,11.35
2017-12-19T22:16:04.929Z,10.52
2017-12-19T22:18:35.580Z,10.52
2017-12-19T22:21:03.651Z,11.50
2017-12-19T22:23:32.356Z,13.20
2017-12-19T22:26:00.898Z,12.00
2017-12-19T22:28:28.959Z,12.80
2017-12-19T22:30:57.004Z,12.30
2017-12-19T22:33:24.967Z,13.30
2017-12-19T22:35:52.974Z,11.57
2017-12-19T22:38:21.713Z,10.50
2017-12-19T22:40:49.743Z,11.55
2017-12-19T22:43:17.690Z,9.73
2017-12-19T22:45:45.723Z,12.18
2017-12-19T22:48:13.754Z,10.75
2017-12-19T22:50:41.746Z,11.68
2017-12-19T22:53:09.722Z,11.23
2017-12-19T22:55:37.843Z,12.43
2017-12-19T22:58:06.978Z,12.05
2017-12-19T23:00:35.001Z,11.38
2017-12-19T23:03:02.933Z,11.80
2017-12-19T23:05:30.921Z,10.98
2017-12-19T23:07:58.867Z,12.00
2017-12-19T23:10:26.872Z,21.87
2017-12-19T23:12:54.822Z,15.55
2017-12-19T23:15:22.803Z,12.40
2017-12-19T23:17:50.737Z,11.85
2017-12-19T23:20:19.515Z,13.32
2017-12-19T23:22:47.435Z,12.63
2017-12-19T23:25:15.892Z,10.85
2017-12-19T23:27:44.094Z,12.60
2017-12-19T23:30:12.080Z,11.65
2017-12-19T23:32:40.011Z,10.73
2017-12-19T23:35:07.995Z,10.35
2017-12-19T23:37:35.912Z,10.20
2017-12-19T23:40:03.972Z,9.38
2017-12-19T23:42:31.917Z,9.98
2017-12-19T23:44:59.890Z,9.90
2017-12-19T23:47:27.816Z,11.10
2017-12-19T23:49:55.774Z,9.98
2017-12-19T23:52:23.711Z,10.73
2017-12-19T23:54:51.689Z,9.43
2017-12-19T23:57:19.720Z,11.48
2017-12-19T23:59:47.693Z,10.68
